• Join FlightAware (Why Join?)
  • Login
  • US Flag 
08:35PM EDT


 

Airport Tracker/Info


-or-


 

Live Flight TrackerFlight Track Log ✈ N75ZM ✈ 18-Sep-2013 ✈ KPDK - KCRG

Flight Track Log - Related Links

Times and Time Zones

All times are in EDT time to prevent confusion due to time zone crossing. See the N75ZM flight status page for this flight to view local times or setup timezone preferences in your user account.

Time Position Orientation Groundspeed Altitude Reporting Facility
EDT Latitude Longitude Course Direction KTS MPH feet Rate Location/Type
02:34PM 33.8500 -84.3000 121° Southeast 95 109 2,300  Level Atlanta TRACON
02:35PM 33.8333 -84.2667 121° Southeast 128 147 3,100 360 Climbing Atlanta TRACON
02:36PM 33.8000 -84.2333 140° Southeast 158 182 3,100  Level Atlanta TRACON
02:37PM 33.7500 -84.2167 165° South 165 190 3,100  Level Atlanta TRACON
02:38PM 33.7167 -84.2000 157° South 169 194 3,100  Level Atlanta TRACON
02:39PM 33.6667 -84.1833 164° South 170 196 3,100  Level Atlanta TRACON
02:40PM 33.6167 -84.1667 164° South 169 194 3,100  Level Atlanta TRACON
02:41PM 33.5833 -84.1333 140° Southeast 170 196 3,100 120 Level Atlanta TRACON
02:42PM 33.5333 -84.1167 164° South 168 193 3,400 300 Climbing Atlanta TRACON
02:43PM 33.5000 -84.0833 140° Southeast 155 178 3,800 420 Climbing Atlanta TRACON
02:44PM 33.4667 -84.0667 157° South 153 176 4,200 420 Climbing Atlanta TRACON
02:45PM 33.4167 -84.0500 164° South 150 173 4,700 420 Climbing Atlanta TRACON
02:46PM 33.4000 -84.0000 112° Southeast 150 173 5,200 480 Climbing Atlanta TRACON
02:47PM 33.3833 -83.9667 121° Southeast 154 177 5,700 480 Climbing Atlanta TRACON
02:48PM 33.3500 -83.9333 140° Southeast 156 180 6,200 420 Climbing Atlanta TRACON
02:49PM 33.3000 -83.9167 164° South 155 178 6,600 420 Climbing Atlanta TRACON
02:50PM 33.2667 -83.8833 140° Southeast 153 176 7,100 420 Climbing Atlanta TRACON
02:51PM 33.2333 -83.8500 140° Southeast 153 176 7,500 480 Climbing Atlanta TRACON
02:52PM 33.2000 -83.8333 157° South 150 173 8,000 480 Climbing Atlanta TRACON
02:53PM 33.1667 -83.8000 140° Southeast 150 173 8,500 420 Climbing Atlanta TRACON
02:54PM 33.1333 -83.7667 140° Southeast 150 173 8,900 300 Climbing Atlanta TRACON
02:55PM 33.1000 -83.7500 157° South 161 185 9,100 60 Climbing Atlanta TRACON
02:56PM 33.0667 -83.7167 140° Southeast 172 198 9,100  Level Atlanta TRACON
02:57PM 33.0333 -83.6833 140° Southeast 172 198 9,100  Level Atlanta TRACON
02:58PM 32.9833 -83.6500 151° Southeast 172 198 9,100  Level Atlanta TRACON
02:59PM 32.9500 -83.6167 140° Southeast 173 199 9,100  Level Atlanta TRACON
03:00PM 32.9000 -83.5833 151° Southeast 173 199 9,100  Level Atlanta TRACON
03:01PM 32.8667 -83.5500 140° Southeast 174 200 9,100  Level Atlanta TRACON
03:02PM 32.8333 -83.5167 140° Southeast 176 203 9,100  Level Atlanta TRACON
03:03PM 32.8000 -83.4833 140° Southeast 176 203 9,100  Level Atlanta TRACON
03:04PM 32.7500 -83.4500 151° Southeast 175 201 9,100  Level Atlanta TRACON
03:05PM 32.7167 -83.4167 140° Southeast 175 201 9,100  Level Atlanta TRACON
03:06PM 32.6667 -83.3833 151° Southeast 173 199 9,100  Level Atlanta TRACON
03:07PM 32.6333 -83.3667 157° South 172 198 9,100  Level Atlanta TRACON
03:08PM 32.6000 -83.3333 140° Southeast 172 198 9,100  Level Atlanta TRACON
03:10PM 32.5022 -83.2497 144° Southeast 176 203 9,100  Level Jacksonville Center
03:11PM 32.4606 -83.2150 145° Southeast 176 203 9,100  Level Jacksonville Center
03:12PM 32.4231 -83.1856 146° Southeast 176 203 9,100  Level Jacksonville Center
03:13PM 32.3856 -83.1533 144° Southeast 176 203 9,100  Level Jacksonville Center
03:14PM 32.3481 -83.1214 144° Southeast 176 203 9,100  Level Jacksonville Center
03:15PM 32.3064 -83.0892 147° Southeast 176 203 9,100  Level Jacksonville Center
03:16PM 32.2686 -83.0572 144° Southeast 176 203 9,100  Level Jacksonville Center
03:17PM 32.2292 -83.0253 146° Southeast 176 203 9,100  Level Jacksonville Center
03:18PM 32.1894 -82.9931 146° Southeast 176 203 9,100  Level Jacksonville Center
03:19PM 32.1519 -82.9614 144° Southeast 176 203 9,100 -60 Level Jacksonville Center
03:20PM 32.1103 -82.9294 147° Southeast 176 203 9,000 -60 Descending Jacksonville Center
03:21PM 32.0706 -82.8975 146° Southeast 176 203 9,000  Level Jacksonville Center
03:22PM 32.0328 -82.8656 144° Southeast 176 203 9,000  Level Jacksonville Center
03:23PM 31.9933 -82.8314 144° Southeast 176 203 9,000  Level Jacksonville Center
03:24PM 31.9536 -82.7994 146° Southeast 176 203 9,000  Level Jacksonville Center
03:25PM 31.9139 -82.7678 146° Southeast 176 203 9,000  Level Jacksonville Center
03:26PM 31.8761 -82.7336 142° Southeast 176 203 9,000  Level Jacksonville Center
03:27PM 31.8344 -82.7042 149° Southeast 176 203 9,000  Level Jacksonville Center
03:28PM 31.7925 -82.6703 146° Southeast 176 203 9,000  Level Jacksonville Center
03:29PM 31.7550 -82.6383 144° Southeast 176 203 9,000  Level Jacksonville Center
03:30PM 31.7131 -82.6044 145° Southeast 176 203 9,000  Level Jacksonville Center
03:31PM 31.6756 -82.5728 144° Southeast 176 203 9,000  Level Jacksonville Center
03:32PM 31.6336 -82.5411 147° Southeast 176 203 9,000  Level Jacksonville Center
03:33PM 31.5981 -82.5119 145° Southeast 176 203 9,000  Level Jacksonville Center
03:34PM 31.5583 -82.4806 146° Southeast 176 203 9,000  Level Jacksonville Center
03:35PM 31.5122 -82.4492 150° Southeast 187 215 9,000  Level Jacksonville Center
03:36PM 31.4808 -82.4175 139° Southeast 181 208 9,000  Level Jacksonville Center
03:37PM 31.4389 -82.3861 147° Southeast 175 201 9,000 -120 Level Jacksonville Center
03:38PM 31.4033 -82.3522 141° Southeast 174 200 8,800 -360 Descending Jacksonville Center
03:39PM 31.3508 -82.3183 151° Southeast 187 215 8,300 -420 Descending Jacksonville Center
03:40PM 31.3069 -82.2847 147° Southeast 192 221 8,000 -180 Descending Jacksonville Center
03:41PM 31.2672 -82.2508 144° Southeast 187 215 8,000 -120 Level Jacksonville Center
03:42PM 31.2272 -82.2194 146° Southeast 182 209 7,800 -360 Descending Jacksonville Center
03:44PM 31.1868 -82.1833 143° Southeast  Level FlightAware Approximate
03:47PM 31.0281 -82.0586 146° Southeast 166 191 6,100  Level Jacksonville Center
03:47PM 31.0217 -82.0561 161° South 187 215 6,000 -120 Descending Jacksonville Center
03:48PM 30.9839 -82.0250 145° Southeast 180 207 6,000  Level Jacksonville Center
03:49PM 30.9503 -81.9964 144° Southeast 166 191 6,100  Climbing Jacksonville Center
03:49PM 30.9461 -81.9939 153° Southeast 170 196 6,000  Descending Jacksonville Center
03:50PM 30.9083 -81.9653 147° Southeast 170 196 6,100 60 Climbing Jacksonville Center
03:51PM 30.9299 -81.9623 146° Southeast  Level FlightAware Approximate
03:51PM 30.8683 -81.9317 144° Southeast 167 192 6,200  Level Jacksonville Center
03:51PM 30.8683 -81.9342 270° West 170 196 6,000 -540 Descending Jacksonville Center
03:52PM 30.8919 -81.9329 146° Southeast  Level FlightAware Approximate
03:52PM 30.8286 -81.9031 146° Southeast 173 199 5,700  Level Jacksonville Center
03:52PM 30.8286 -81.9031 146° Southeast 170 196 5,700 -420 Level Jacksonville Center
03:53PM 30.8540 -81.9035 146° Southeast  Level FlightAware Approximate
03:53PM 30.7864 -81.8697 146° Southeast 186 214 5,300  Level Jacksonville Center
03:53PM 30.7864 -81.8697 146° Southeast 175 201 5,200 -600 Descending Jacksonville Center
03:54PM 30.7444 -81.8364 146° Southeast 180 207 4,700 -360 Descending Jacksonville Center
03:55PM 30.7003 -81.8031 147° Southeast 180 207 4,500 -300 Descending Jacksonville Center
03:56PM 30.6644 -81.7719 143° Southeast 165 190 4,200 -180 Descending Jacksonville Center
03:57PM 30.6247 -81.7411 146° Southeast 162 186 4,200  Level Jacksonville Center
03:58PM 30.5867 -81.7125 147° Southeast 150 173 4,200 -60 Level Jacksonville Center
03:59PM 30.5553 -81.6889 147° Southeast 146 168 4,100  Descending Jacksonville Center
04:00PM 30.5194 -81.6603 145° Southeast 148 170 4,200  Climbing Jacksonville Center
04:02PM 30.4836 -81.6319 146° Southeast 152 175 4,200  Level Jacksonville Center
04:03PM 30.4519 -81.6011 140° Southeast 144 166 4,200  Level Jacksonville Center
04:04PM 30.4328 -81.5628 120° Southeast 142 163 4,200  Level Jacksonville Center
04:05PM 30.4136 -81.5219 119° Southeast 141 162 4,200 -300 Level Jacksonville Center
04:06PM 30.3800 -81.4911 142° Southeast 154 177 3,600 -600 Descending Jacksonville Center
04:07PM 30.3461 -81.4628 144° Southeast 151 174 3,100 -600 Descending Jacksonville Center
04:08PM 30.3125 -81.4344 144° Southeast 149 171 2,400 -480 Descending Jacksonville Center
04:09PM 30.2850 -81.4011 134° Southeast 144 166 2,200 -120 Descending Jacksonville Center
04:10PM 30.2636 -81.3678 127° Southeast 113 130 2,200  Level Jacksonville Center
04:11PM 30.2403 -81.3442 139° Southeast 126 145 2,200  Level Jacksonville Center
04:12PM 30.2094 -81.3783 224° Southwest 134 154 2,200 -60 Level Jacksonville Center
04:13PM 30.2264 -81.4044 307° West 119 137 2,100 -240 Descending Jacksonville Center
04:14PM 30.2539 -81.4208 333° Northwest 111 128 1,800 -300 Descending Jacksonville Center
04:15PM 30.2814 -81.4469 321° Northwest 126 145 1,600 -360 Descending Jacksonville Center
04:16PM 30.2983 -81.4708 309° West 120 138 1,200 -420 Descending Jacksonville Center
04:17PM 30.3072 -81.5164 283° West 147 169 900 -420 Descending Jacksonville Center
04:18PM 30.3219 -81.5281 326° Northwest 63 72 400 -300 Descending Jacksonville Center
04:19PM 30.3281 -81.5233 34° Northeast 59 68 300 -120 Descending Jacksonville Center